sensor_id;sensor_type;location;lat;lon;timestamp;P1;durP1;ratioP1;P2;durP2;ratioP2
6834;SDS011;3455;42.150;24.734;2023-05-10T00:01:10;4.40;;;4.07;;
6834;SDS011;3455;42.150;24.734;2023-05-10T00:03:36;5.53;;;5.03;;
6834;SDS011;3455;42.150;24.734;2023-05-10T00:06:03;5.03;;;4.57;;
6834;SDS011;3455;42.150;24.734;2023-05-10T00:08:30;4.93;;;4.50;;
6834;SDS011;3455;42.150;24.734;2023-05-10T00:10:57;4.40;;;3.97;;
6834;SDS011;3455;42.150;24.734;2023-05-10T00:13:25;4.87;;;4.00;;
6834;SDS011;3455;42.150;24.734;2023-05-10T00:15:52;5.43;;;4.67;;
6834;SDS011;3455;42.150;24.734;2023-05-10T00:18:19;4.70;;;4.33;;
6834;SDS011;3455;42.150;24.734;2023-05-10T00:20:45;4.07;;;3.87;;
6834;SDS011;3455;42.150;24.734;2023-05-10T00:23:13;5.43;;;4.37;;
6834;SDS011;3455;42.150;24.734;2023-05-10T00:25:40;5.47;;;4.10;;
6834;SDS011;3455;42.150;24.734;2023-05-10T00:28:07;8.97;;;4.77;;
6834;SDS011;3455;42.150;24.734;2023-05-10T00:30:35;4.67;;;4.20;;
6834;SDS011;3455;42.150;24.734;2023-05-10T00:33:02;5.40;;;4.90;;
6834;SDS011;3455;42.150;24.734;2023-05-10T00:35:29;4.90;;;4.60;;
6834;SDS011;3455;42.150;24.734;2023-05-10T00:37:55;4.77;;;4.47;;
6834;SDS011;3455;42.150;24.734;2023-05-10T00:40:22;5.27;;;4.40;;
6834;SDS011;3455;42.150;24.734;2023-05-10T00:42:49;5.27;;;4.87;;
6834;SDS011;3455;42.150;24.734;2023-05-10T00:45:15;6.13;;;5.63;;
6834;SDS011;3455;42.150;24.734;2023-05-10T00:47:43;5.40;;;5.00;;
6834;SDS011;3455;42.150;24.734;2023-05-10T00:50:11;5.80;;;5.27;;
6834;SDS011;3455;42.150;24.734;2023-05-10T00:52:37;6.37;;;5.83;;
6834;SDS011;3455;42.150;24.734;2023-05-10T00:55:05;7.00;;;5.00;;
6834;SDS011;3455;42.150;24.734;2023-05-10T00:57:33;6.83;;;4.73;;
6834;SDS011;3455;42.150;24.734;2023-05-10T00:59:59;6.00;;;5.47;;
6834;SDS011;3455;42.150;24.734;2023-05-10T01:02:28;7.27;;;5.80;;
6834;SDS011;3455;42.150;24.734;2023-05-10T01:04:56;6.30;;;5.60;;
6834;SDS011;3455;42.150;24.734;2023-05-10T01:07:23;8.03;;;5.47;;
6834;SDS011;3455;42.150;24.734;2023-05-10T01:09:49;5.63;;;5.23;;
6834;SDS011;3455;42.150;24.734;2023-05-10T01:12:16;5.90;;;5.50;;
6834;SDS011;3455;42.150;24.734;2023-05-10T01:14:43;7.30;;;6.07;;
6834;SDS011;3455;42.150;24.734;2023-05-10T01:17:10;7.67;;;5.77;;
6834;SDS011;3455;42.150;24.734;2023-05-10T01:19:38;5.93;;;5.00;;
6834;SDS011;3455;42.150;24.734;2023-05-10T01:22:08;6.13;;;5.70;;
6834;SDS011;3455;42.150;24.734;2023-05-10T01:24:59;6.27;;;5.77;;
6834;SDS011;3455;42.150;24.734;2023-05-10T01:28:06;7.40;;;6.63;;
6834;SDS011;3455;42.150;24.734;2023-05-10T01:33:52;8.60;;;7.80;;
6834;SDS011;3455;42.150;24.734;2023-05-10T01:36:23;8.60;;;8.10;;
6834;SDS011;3455;42.150;24.734;2023-05-10T01:38:57;10.07;;;8.03;;
6834;SDS011;3455;42.150;24.734;2023-05-10T01:41:30;9.47;;;8.77;;
6834;SDS011;3455;42.150;24.734;2023-05-10T01:44:08;8.93;;;8.17;;
6834;SDS011;3455;42.150;24.734;2023-05-10T01:46:41;8.03;;;7.43;;
6834;SDS011;3455;42.150;24.734;2023-05-10T01:49:10;8.27;;;7.73;;
6834;SDS011;3455;42.150;24.734;2023-05-10T01:51:44;9.27;;;8.50;;
6834;SDS011;3455;42.150;24.734;2023-05-10T01:54:14;7.73;;;7.03;;
6834;SDS011;3455;42.150;24.734;2023-05-10T01:56:45;7.97;;;7.30;;
6834;SDS011;3455;42.150;24.734;2023-05-10T01:59:17;9.87;;;7.63;;
6834;SDS011;3455;42.150;24.734;2023-05-10T02:01:45;13.63;;;9.33;;
6834;SDS011;3455;42.150;24.734;2023-05-10T02:04:15;7.83;;;7.27;;
6834;SDS011;3455;42.150;24.734;2023-05-10T02:06:43;12.53;;;7.93;;
6834;SDS011;3455;42.150;24.734;2023-05-10T02:09:13;7.83;;;7.23;;
6834;SDS011;3455;42.150;24.734;2023-05-10T02:11:41;9.47;;;7.57;;
6834;SDS011;3455;42.150;24.734;2023-05-10T02:14:10;8.73;;;7.87;;
6834;SDS011;3455;42.150;24.734;2023-05-10T02:16:38;7.73;;;7.13;;
6834;SDS011;3455;42.150;24.734;2023-05-10T02:19:05;7.90;;;7.40;;
6834;SDS011;3455;42.150;24.734;2023-05-10T02:21:35;9.20;;;8.13;;
6834;SDS011;3455;42.150;24.734;2023-05-10T02:24:03;7.27;;;6.77;;
6834;SDS011;3455;42.150;24.734;2023-05-10T02:26:31;9.70;;;6.70;;
6834;SDS011;3455;42.150;24.734;2023-05-10T02:29:01;6.97;;;5.87;;
6834;SDS011;3455;42.150;24.734;2023-05-10T02:31:29;7.63;;;5.77;;
6834;SDS011;3455;42.150;24.734;2023-05-10T02:33:58;6.70;;;6.10;;
6834;SDS011;3455;42.150;24.734;2023-05-10T02:36:26;6.90;;;6.50;;
6834;SDS011;3455;42.150;24.734;2023-05-10T02:38:55;8.10;;;7.60;;
6834;SDS011;3455;42.150;24.734;2023-05-10T02:41:23;11.87;;;7.43;;
6834;SDS011;3455;42.150;24.734;2023-05-10T02:43:51;8.37;;;7.40;;
6834;SDS011;3455;42.150;24.734;2023-05-10T02:46:23;8.23;;;7.23;;
6834;SDS011;3455;42.150;24.734;2023-05-10T02:48:50;6.57;;;5.97;;
6834;SDS011;3455;42.150;24.734;2023-05-10T02:51:17;7.50;;;6.07;;
6834;SDS011;3455;42.150;24.734;2023-05-10T02:53:46;7.87;;;7.17;;
6834;SDS011;3455;42.150;24.734;2023-05-10T02:56:23;6.80;;;6.40;;
6834;SDS011;3455;42.150;24.734;2023-05-10T02:58:55;7.23;;;6.60;;
6834;SDS011;3455;42.150;24.734;2023-05-10T03:01:21;9.77;;;7.13;;
6834;SDS011;3455;42.150;24.734;2023-05-10T03:03:48;10.87;;;6.93;;
6834;SDS011;3455;42.150;24.734;2023-05-10T03:06:15;7.57;;;7.00;;
6834;SDS011;3455;42.150;24.734;2023-05-10T03:08:42;7.50;;;6.97;;
6834;SDS011;3455;42.150;24.734;2023-05-10T03:11:15;8.43;;;7.83;;
6834;SDS011;3455;42.150;24.734;2023-05-10T03:13:54;10.33;;;7.83;;
6834;SDS011;3455;42.150;24.734;2023-05-10T03:16:29;7.80;;;7.23;;
6834;SDS011;3455;42.150;24.734;2023-05-10T03:19:05;9.17;;;8.20;;
6834;SDS011;3455;42.150;24.734;2023-05-10T03:21:38;7.63;;;7.00;;
6834;SDS011;3455;42.150;24.734;2023-05-10T03:24:09;9.57;;;7.67;;
6834;SDS011;3455;42.150;24.734;2023-05-10T03:26:41;12.00;;;7.20;;
6834;SDS011;3455;42.150;24.734;2023-05-10T03:29:10;7.80;;;7.10;;
6834;SDS011;3455;42.150;24.734;2023-05-10T03:31:39;10.63;;;7.37;;
6834;SDS011;3455;42.150;24.734;2023-05-10T03:34:06;14.37;;;7.90;;
6834;SDS011;3455;42.150;24.734;2023-05-10T03:36:33;8.37;;;7.50;;
6834;SDS011;3455;42.150;24.734;2023-05-10T03:38:59;8.87;;;7.50;;
6834;SDS011;3455;42.150;24.734;2023-05-10T03:41:26;7.80;;;7.20;;
6834;SDS011;3455;42.150;24.734;2023-05-10T03:43:54;7.93;;;7.33;;
6834;SDS011;3455;42.150;24.734;2023-05-10T03:46:21;9.77;;;7.13;;
6834;SDS011;3455;42.150;24.734;2023-05-10T03:48:48;8.97;;;7.17;;
6834;SDS011;3455;42.150;24.734;2023-05-10T03:51:15;8.13;;;7.13;;
6834;SDS011;3455;42.150;24.734;2023-05-10T03:53:41;8.27;;;7.63;;
6834;SDS011;3455;42.150;24.734;2023-05-10T03:56:08;8.63;;;7.00;;
6834;SDS011;3455;42.150;24.734;2023-05-10T03:58:35;8.23;;;7.53;;
6834;SDS011;3455;42.150;24.734;2023-05-10T04:01:03;11.10;;;8.27;;
6834;SDS011;3455;42.150;24.734;2023-05-10T04:03:30;7.57;;;6.90;;
6834;SDS011;3455;42.150;24.734;2023-05-10T04:05:59;16.40;;;12.90;;
6834;SDS011;3455;42.150;24.734;2023-05-10T04:08:26;8.00;;;7.40;;
6834;SDS011;3455;42.150;24.734;2023-05-10T04:10:54;7.23;;;6.70;;
6834;SDS011;3455;42.150;24.734;2023-05-10T04:13:20;6.80;;;6.27;;
6834;SDS011;3455;42.150;24.734;2023-05-10T04:15:47;10.00;;;9.03;;
6834;SDS011;3455;42.150;24.734;2023-05-10T04:18:15;8.23;;;6.93;;
6834;SDS011;3455;42.150;24.734;2023-05-10T04:20:42;8.43;;;7.80;;
6834;SDS011;3455;42.150;24.734;2023-05-10T04:23:09;9.67;;;8.13;;
6834;SDS011;3455;42.150;24.734;2023-05-10T04:25:35;8.80;;;7.70;;
6834;SDS011;3455;42.150;24.734;2023-05-10T04:28:02;7.97;;;7.37;;
6834;SDS011;3455;42.150;24.734;2023-05-10T04:30:29;7.53;;;7.03;;
6834;SDS011;3455;42.150;24.734;2023-05-10T04:32:56;12.90;;;6.77;;
6834;SDS011;3455;42.150;24.734;2023-05-10T04:35:24;8.60;;;7.20;;
6834;SDS011;3455;42.150;24.734;2023-05-10T04:37:51;7.83;;;7.33;;
6834;SDS011;3455;42.150;24.734;2023-05-10T04:40:18;12.00;;;8.77;;
6834;SDS011;3455;42.150;24.734;2023-05-10T04:42:46;8.83;;;7.93;;
6834;SDS011;3455;42.150;24.734;2023-05-10T04:45:13;12.27;;;7.77;;
6834;SDS011;3455;42.150;24.734;2023-05-10T04:47:40;10.17;;;7.17;;
6834;SDS011;3455;42.150;24.734;2023-05-10T04:50:07;8.60;;;6.70;;
6834;SDS011;3455;42.150;24.734;2023-05-10T04:52:36;7.60;;;6.90;;
6834;SDS011;3455;42.150;24.734;2023-05-10T04:55:03;7.83;;;7.10;;
6834;SDS011;3455;42.150;24.734;2023-05-10T04:57:30;10.53;;;7.47;;
6834;SDS011;3455;42.150;24.734;2023-05-10T04:59:56;7.50;;;7.00;;
6834;SDS011;3455;42.150;24.734;2023-05-10T05:02:23;7.47;;;6.10;;
6834;SDS011;3455;42.150;24.734;2023-05-10T05:04:50;6.43;;;5.77;;
6834;SDS011;3455;42.150;24.734;2023-05-10T05:07:17;6.80;;;6.13;;
6834;SDS011;3455;42.150;24.734;2023-05-10T05:09:45;6.97;;;6.37;;
6834;SDS011;3455;42.150;24.734;2023-05-10T05:12:11;6.27;;;5.67;;
6834;SDS011;3455;42.150;24.734;2023-05-10T05:14:39;11.10;;;5.77;;
6834;SDS011;3455;42.150;24.734;2023-05-10T05:17:06;7.17;;;6.47;;
6834;SDS011;3455;42.150;24.734;2023-05-10T05:19:33;5.93;;;5.53;;
6834;SDS011;3455;42.150;24.734;2023-05-10T05:22:00;6.87;;;6.37;;
6834;SDS011;3455;42.150;24.734;2023-05-10T05:24:26;7.37;;;5.90;;
6834;SDS011;3455;42.150;24.734;2023-05-10T05:26:54;7.90;;;7.30;;
6834;SDS011;3455;42.150;24.734;2023-05-10T05:29:21;6.90;;;6.30;;
6834;SDS011;3455;42.150;24.734;2023-05-10T05:31:48;5.90;;;5.40;;
6834;SDS011;3455;42.150;24.734;2023-05-10T05:34:14;11.07;;;8.43;;
6834;SDS011;3455;42.150;24.734;2023-05-10T05:36:41;6.80;;;6.33;;
6834;SDS011;3455;42.150;24.734;2023-05-10T05:39:08;7.20;;;6.50;;
6834;SDS011;3455;42.150;24.734;2023-05-10T05:41:35;9.50;;;6.67;;
6834;SDS011;3455;42.150;24.734;2023-05-10T05:44:03;7.10;;;5.40;;
6834;SDS011;3455;42.150;24.734;2023-05-10T05:46:30;7.57;;;5.47;;
6834;SDS011;3455;42.150;24.734;2023-05-10T05:48:56;6.03;;;5.30;;
6834;SDS011;3455;42.150;24.734;2023-05-10T05:51:23;9.80;;;5.80;;
6834;SDS011;3455;42.150;24.734;2023-05-10T05:53:50;6.13;;;5.43;;
6834;SDS011;3455;42.150;24.734;2023-05-10T05:56:17;5.87;;;5.30;;
6834;SDS011;3455;42.150;24.734;2023-05-10T05:58:49;7.47;;;5.60;;
6834;SDS011;3455;42.150;24.734;2023-05-10T06:01:17;4.93;;;4.63;;
6834;SDS011;3455;42.150;24.734;2023-05-10T06:03:44;5.90;;;5.03;;
6834;SDS011;3455;42.150;24.734;2023-05-10T06:06:10;5.47;;;4.97;;
6834;SDS011;3455;42.150;24.734;2023-05-10T06:08:37;10.03;;;5.10;;
6834;SDS011;3455;42.150;24.734;2023-05-10T06:11:04;5.33;;;4.83;;
6834;SDS011;3455;42.150;24.734;2023-05-10T06:13:31;5.33;;;4.93;;
6834;SDS011;3455;42.150;24.734;2023-05-10T06:16:00;11.00;;;5.23;;
6834;SDS011;3455;42.150;24.734;2023-05-10T06:18:28;5.60;;;5.20;;
6834;SDS011;3455;42.150;24.734;2023-05-10T06:20:55;6.10;;;5.53;;
6834;SDS011;3455;42.150;24.734;2023-05-10T06:23:22;5.93;;;5.33;;
6834;SDS011;3455;42.150;24.734;2023-05-10T06:25:50;5.70;;;5.30;;
6834;SDS011;3455;42.150;24.734;2023-05-10T06:28:18;5.13;;;4.77;;
6834;SDS011;3455;42.150;24.734;2023-05-10T06:30:45;9.07;;;4.73;;
6834;SDS011;3455;42.150;24.734;2023-05-10T06:33:12;6.37;;;5.90;;
6834;SDS011;3455;42.150;24.734;2023-05-10T06:35:42;6.77;;;5.60;;
6834;SDS011;3455;42.150;24.734;2023-05-10T06:38:09;5.57;;;4.93;;
6834;SDS011;3455;42.150;24.734;2023-05-10T06:40:36;6.87;;;5.20;;
6834;SDS011;3455;42.150;24.734;2023-05-10T06:43:03;4.77;;;4.50;;
6834;SDS011;3455;42.150;24.734;2023-05-10T06:45:29;7.57;;;4.77;;
6834;SDS011;3455;42.150;24.734;2023-05-10T06:47:56;5.10;;;4.60;;
6834;SDS011;3455;42.150;24.734;2023-05-10T06:50:23;5.83;;;5.03;;
6834;SDS011;3455;42.150;24.734;2023-05-10T06:52:51;7.10;;;5.90;;
6834;SDS011;3455;42.150;24.734;2023-05-10T06:55:18;6.80;;;6.17;;
6834;SDS011;3455;42.150;24.734;2023-05-10T06:57:45;5.30;;;4.80;;
6834;SDS011;3455;42.150;24.734;2023-05-10T07:00:12;4.67;;;4.27;;
6834;SDS011;3455;42.150;24.734;2023-05-10T07:02:40;5.13;;;4.73;;
6834;SDS011;3455;42.150;24.734;2023-05-10T07:05:07;5.27;;;4.83;;
6834;SDS011;3455;42.150;24.734;2023-05-10T07:07:34;6.30;;;4.33;;
6834;SDS011;3455;42.150;24.734;2023-05-10T07:10:03;8.47;;;4.70;;
6834;SDS011;3455;42.150;24.734;2023-05-10T07:12:30;5.57;;;5.17;;
6834;SDS011;3455;42.150;24.734;2023-05-10T07:14:57;5.33;;;4.80;;
6834;SDS011;3455;42.150;24.734;2023-05-10T07:17:25;7.60;;;5.67;;
6834;SDS011;3455;42.150;24.734;2023-05-10T07:19:52;7.70;;;4.93;;
6834;SDS011;3455;42.150;24.734;2023-05-10T07:22:19;5.53;;;4.97;;
6834;SDS011;3455;42.150;24.734;2023-05-10T07:24:46;5.60;;;4.60;;
6834;SDS011;3455;42.150;24.734;2023-05-10T07:27:14;5.17;;;4.77;;
6834;SDS011;3455;42.150;24.734;2023-05-10T07:29:41;7.60;;;4.40;;
6834;SDS011;3455;42.150;24.734;2023-05-10T07:32:07;4.70;;;4.30;;
6834;SDS011;3455;42.150;24.734;2023-05-10T07:34:34;4.83;;;4.33;;
6834;SDS011;3455;42.150;24.734;2023-05-10T07:37:01;7.53;;;5.30;;
6834;SDS011;3455;42.150;24.734;2023-05-10T07:39:28;4.87;;;3.97;;
6834;SDS011;3455;42.150;24.734;2023-05-10T07:41:54;4.70;;;4.30;;
6834;SDS011;3455;42.150;24.734;2023-05-10T07:44:23;3.63;;;3.33;;
6834;SDS011;3455;42.150;24.734;2023-05-10T07:46:50;4.07;;;3.88;;
6834;SDS011;3455;42.150;24.734;2023-05-10T07:49:17;4.30;;;4.07;;
6834;SDS011;3455;42.150;24.734;2023-05-10T07:51:43;6.90;;;4.35;;
6834;SDS011;3455;42.150;24.734;2023-05-10T07:54:10;4.43;;;4.07;;
6834;SDS011;3455;42.150;24.734;2023-05-10T07:56:37;6.15;;;3.63;;
6834;SDS011;3455;42.150;24.734;2023-05-10T07:59:04;3.75;;;3.17;;
6834;SDS011;3455;42.150;24.734;2023-05-10T08:01:33;5.28;;;3.65;;
6834;SDS011;3455;42.150;24.734;2023-05-10T08:04:01;3.63;;;2.95;;
6834;SDS011;3455;42.150;24.734;2023-05-10T08:06:28;3.65;;;3.33;;
6834;SDS011;3455;42.150;24.734;2023-05-10T08:08:55;3.92;;;3.67;;
6834;SDS011;3455;42.150;24.734;2023-05-10T08:11:22;4.28;;;3.65;;
6834;SDS011;3455;42.150;24.734;2023-05-10T08:13:49;3.95;;;3.70;;
6834;SDS011;3455;42.150;24.734;2023-05-10T08:16:16;5.38;;;3.97;;
6834;SDS011;3455;42.150;24.734;2023-05-10T08:18:45;4.43;;;3.72;;
6834;SDS011;3455;42.150;24.734;2023-05-10T08:21:13;4.72;;;3.30;;
6834;SDS011;3455;42.150;24.734;2023-05-10T08:23:40;3.80;;;3.50;;
6834;SDS011;3455;42.150;24.734;2023-05-10T08:26:08;4.10;;;3.70;;
6834;SDS011;3455;42.150;24.734;2023-05-10T08:28:35;4.43;;;3.33;;
6834;SDS011;3455;42.150;24.734;2023-05-10T08:31:02;3.28;;;3.08;;
6834;SDS011;3455;42.150;24.734;2023-05-10T08:33:29;7.95;;;7.18;;
6834;SDS011;3455;42.150;24.734;2023-05-10T08:35:57;5.47;;;4.10;;
6834;SDS011;3455;42.150;24.734;2023-05-10T08:38:23;4.95;;;4.30;;
6834;SDS011;3455;42.150;24.734;2023-05-10T08:40:51;3.78;;;3.47;;
6834;SDS011;3455;42.150;24.734;2023-05-10T08:43:23;4.32;;;3.63;;
6834;SDS011;3455;42.150;24.734;2023-05-10T08:45:54;6.60;;;3.60;;
6834;SDS011;3455;42.150;24.734;2023-05-10T08:48:22;3.90;;;3.60;;
6834;SDS011;3455;42.150;24.734;2023-05-10T08:50:49;5.43;;;3.08;;
6834;SDS011;3455;42.150;24.734;2023-05-10T08:53:20;4.65;;;3.58;;
6834;SDS011;3455;42.150;24.734;2023-05-10T08:55:50;3.30;;;3.00;;
6834;SDS011;3455;42.150;24.734;2023-05-10T08:58:17;4.38;;;3.95;;
6834;SDS011;3455;42.150;24.734;2023-05-10T09:00:45;3.28;;;3.05;;
6834;SDS011;3455;42.150;24.734;2023-05-10T09:03:13;4.28;;;3.08;;
6834;SDS011;3455;42.150;24.734;2023-05-10T09:05:40;4.15;;;3.75;;
6834;SDS011;3455;42.150;24.734;2023-05-10T09:08:07;4.43;;;3.90;;
6834;SDS011;3455;42.150;24.734;2023-05-10T09:10:36;4.20;;;3.80;;
6834;SDS011;3455;42.150;24.734;2023-05-10T09:13:04;4.43;;;3.70;;
6834;SDS011;3455;42.150;24.734;2023-05-10T09:15:33;3.55;;;3.40;;
6834;SDS011;3455;42.150;24.734;2023-05-10T09:18:00;8.77;;;4.07;;
6834;SDS011;3455;42.150;24.734;2023-05-10T09:20:27;5.47;;;5.18;;
6834;SDS011;3455;42.150;24.734;2023-05-10T09:22:54;6.45;;;3.67;;
6834;SDS011;3455;42.150;24.734;2023-05-10T09:25:21;6.63;;;4.30;;
6834;SDS011;3455;42.150;24.734;2023-05-10T09:27:49;5.15;;;4.75;;
6834;SDS011;3455;42.150;24.734;2023-05-10T09:30:17;8.40;;;3.92;;
6834;SDS011;3455;42.150;24.734;2023-05-10T09:32:52;4.63;;;4.22;;
6834;SDS011;3455;42.150;24.734;2023-05-10T09:35:20;5.88;;;4.28;;
6834;SDS011;3455;42.150;24.734;2023-05-10T09:37:49;4.05;;;3.85;;
6834;SDS011;3455;42.150;24.734;2023-05-10T09:40:17;4.13;;;3.72;;
6834;SDS011;3455;42.150;24.734;2023-05-10T09:42:52;4.05;;;3.85;;
6834;SDS011;3455;42.150;24.734;2023-05-10T09:45:20;5.82;;;5.22;;
6834;SDS011;3455;42.150;24.734;2023-05-10T09:47:48;3.67;;;3.38;;
6834;SDS011;3455;42.150;24.734;2023-05-10T09:50:15;3.80;;;3.60;;
6834;SDS011;3455;42.150;24.734;2023-05-10T09:52:48;5.88;;;3.78;;
6834;SDS011;3455;42.150;24.734;2023-05-10T09:55:16;5.43;;;4.22;;
6834;SDS011;3455;42.150;24.734;2023-05-10T09:57:44;4.35;;;3.63;;
6834;SDS011;3455;42.150;24.734;2023-05-10T10:00:17;3.42;;;3.22;;
6834;SDS011;3455;42.150;24.734;2023-05-10T10:02:45;4.55;;;3.75;;
6834;SDS011;3455;42.150;24.734;2023-05-10T10:05:13;6.15;;;4.50;;
6834;SDS011;3455;42.150;24.734;2023-05-10T10:07:41;5.90;;;5.35;;
6834;SDS011;3455;42.150;24.734;2023-05-10T10:10:08;4.50;;;4.00;;
6834;SDS011;3455;42.150;24.734;2023-05-10T10:12:38;3.85;;;3.55;;
6834;SDS011;3455;42.150;24.734;2023-05-10T10:15:06;6.07;;;3.92;;
6834;SDS011;3455;42.150;24.734;2023-05-10T10:17:36;5.45;;;3.92;;
6834;SDS011;3455;42.150;24.734;2023-05-10T10:20:04;8.38;;;2.92;;
6834;SDS011;3455;42.150;24.734;2023-05-10T10:22:32;4.60;;;3.47;;
6834;SDS011;3455;42.150;24.734;2023-05-10T10:24:59;3.78;;;3.30;;
6834;SDS011;3455;42.150;24.734;2023-05-10T10:27:27;3.00;;;2.80;;
6834;SDS011;3455;42.150;24.734;2023-05-10T10:30:02;3.30;;;3.10;;
6834;SDS011;3455;42.150;24.734;2023-05-10T10:32:46;3.15;;;2.92;;
6834;SDS011;3455;42.150;24.734;2023-05-10T10:35:29;6.05;;;2.83;;
6834;SDS011;3455;42.150;24.734;2023-05-10T10:37:57;3.03;;;2.83;;
6834;SDS011;3455;42.150;24.734;2023-05-10T10:40:27;3.97;;;3.35;;
6834;SDS011;3455;42.150;24.734;2023-05-10T10:42:55;8.10;;;2.90;;
6834;SDS011;3455;42.150;24.734;2023-05-10T10:45:23;3.40;;;3.10;;
6834;SDS011;3455;42.150;24.734;2023-05-10T10:47:56;2.90;;;2.70;;
6834;SDS011;3455;42.150;24.734;2023-05-10T10:50:51;4.22;;;3.30;;
6834;SDS011;3455;42.150;24.734;2023-05-10T10:53:23;3.58;;;3.38;;
6834;SDS011;3455;42.150;24.734;2023-05-10T10:55:55;5.18;;;3.45;;
6834;SDS011;3455;42.150;24.734;2023-05-10T10:58:31;2.80;;;2.70;;
6834;SDS011;3455;42.150;24.734;2023-05-10T11:01:10;3.72;;;3.42;;
6834;SDS011;3455;42.150;24.734;2023-05-10T11:03:39;2.97;;;2.88;;
6834;SDS011;3455;42.150;24.734;2023-05-10T11:06:07;3.58;;;3.40;;
6834;SDS011;3455;42.150;24.734;2023-05-10T11:08:34;3.47;;;3.10;;
6834;SDS011;3455;42.150;24.734;2023-05-10T11:11:09;4.68;;;2.90;;
6834;SDS011;3455;42.150;24.734;2023-05-10T11:13:39;3.58;;;3.30;;
6834;SDS011;3455;42.150;24.734;2023-05-10T11:16:13;3.90;;;3.60;;
6834;SDS011;3455;42.150;24.734;2023-05-10T11:18:53;3.60;;;3.40;;
6834;SDS011;3455;42.150;24.734;2023-05-10T11:21:23;3.55;;;3.33;;
6834;SDS011;3455;42.150;24.734;2023-05-10T11:23:50;4.63;;;4.22;;
6834;SDS011;3455;42.150;24.734;2023-05-10T11:26:21;4.07;;;3.83;;
6834;SDS011;3455;42.150;24.734;2023-05-10T11:28:50;4.13;;;3.80;;
6834;SDS011;3455;42.150;24.734;2023-05-10T11:31:18;5.38;;;3.65;;
6834;SDS011;3455;42.150;24.734;2023-05-10T11:33:46;4.00;;;3.70;;
6834;SDS011;3455;42.150;24.734;2023-05-10T11:36:16;3.67;;;3.30;;
6834;SDS011;3455;42.150;24.734;2023-05-10T11:38:44;3.95;;;3.38;;
6834;SDS011;3455;42.150;24.734;2023-05-10T11:41:11;3.03;;;2.83;;
6834;SDS011;3455;42.150;24.734;2023-05-10T11:43:38;2.92;;;2.70;;
6834;SDS011;3455;42.150;24.734;2023-05-10T11:46:06;3.08;;;2.60;;
6834;SDS011;3455;42.150;24.734;2023-05-10T11:48:32;2.88;;;2.67;;
6834;SDS011;3455;42.150;24.734;2023-05-10T11:51:00;4.28;;;2.50;;
6834;SDS011;3455;42.150;24.734;2023-05-10T11:53:28;3.40;;;2.88;;
6834;SDS011;3455;42.150;24.734;2023-05-10T11:56:02;3.42;;;3.13;;
6834;SDS011;3455;42.150;24.734;2023-05-10T11:58:29;2.97;;;2.78;;
6834;SDS011;3455;42.150;24.734;2023-05-10T12:00:57;3.50;;;3.20;;
6834;SDS011;3455;42.150;24.734;2023-05-10T12:03:24;3.10;;;3.00;;
6834;SDS011;3455;42.150;24.734;2023-05-10T12:05:51;3.97;;;3.58;;
6834;SDS011;3455;42.150;24.734;2023-05-10T12:08:20;3.92;;;3.53;;
6834;SDS011;3455;42.150;24.734;2023-05-10T12:10:49;3.38;;;3.17;;
6834;SDS011;3455;42.150;24.734;2023-05-10T12:13:16;5.75;;;3.35;;
6834;SDS011;3455;42.150;24.734;2023-05-10T12:15:43;4.82;;;4.03;;
6834;SDS011;3455;42.150;24.734;2023-05-10T12:18:10;5.88;;;3.60;;
6834;SDS011;3455;42.150;24.734;2023-05-10T12:20:38;3.42;;;3.30;;
6834;SDS011;3455;42.150;24.734;2023-05-10T12:23:05;3.92;;;3.65;;
6834;SDS011;3455;42.150;24.734;2023-05-10T12:25:34;3.88;;;3.47;;
6834;SDS011;3455;42.150;24.734;2023-05-10T12:28:04;4.20;;;3.80;;
6834;SDS011;3455;42.150;24.734;2023-05-10T12:30:32;4.38;;;4.18;;
6834;SDS011;3455;42.150;24.734;2023-05-10T12:33:01;4.30;;;4.00;;
6834;SDS011;3455;42.150;24.734;2023-05-10T12:35:32;4.78;;;4.28;;
6834;SDS011;3455;42.150;24.734;2023-05-10T12:38:22;4.60;;;4.30;;
6834;SDS011;3455;42.150;24.734;2023-05-10T12:40:51;6.70;;;4.03;;
6834;SDS011;3455;42.150;24.734;2023-05-10T12:43:19;4.82;;;4.43;;
6834;SDS011;3455;42.150;24.734;2023-05-10T12:45:46;4.90;;;4.43;;
6834;SDS011;3455;42.150;24.734;2023-05-10T12:48:13;4.55;;;4.20;;
6834;SDS011;3455;42.150;24.734;2023-05-10T12:50:40;4.65;;;4.35;;
6834;SDS011;3455;42.150;24.734;2023-05-10T12:53:07;3.97;;;3.67;;
6834;SDS011;3455;42.150;24.734;2023-05-10T12:55:34;4.68;;;4.38;;
6834;SDS011;3455;42.150;24.734;2023-05-10T12:58:00;6.00;;;4.88;;
6834;SDS011;3455;42.150;24.734;2023-05-10T13:00:29;5.00;;;4.80;;
6834;SDS011;3455;42.150;24.734;2023-05-10T13:02:55;5.25;;;4.78;;
6834;SDS011;3455;42.150;24.734;2023-05-10T13:05:22;4.90;;;4.70;;
6834;SDS011;3455;42.150;24.734;2023-05-10T13:07:49;5.45;;;4.60;;
6834;SDS011;3455;42.150;24.734;2023-05-10T13:10:16;4.22;;;4.03;;
6834;SDS011;3455;42.150;24.734;2023-05-10T13:12:43;4.35;;;4.03;;
6834;SDS011;3455;42.150;24.734;2023-05-10T13:15:10;4.68;;;4.35;;
6834;SDS011;3455;42.150;24.734;2023-05-10T13:17:38;4.35;;;3.95;;
6834;SDS011;3455;42.150;24.734;2023-05-10T13:20:06;4.65;;;4.43;;
6834;SDS011;3455;42.150;24.734;2023-05-10T13:22:34;5.07;;;4.68;;
6834;SDS011;3455;42.150;24.734;2023-05-10T13:25:01;5.65;;;4.70;;
6834;SDS011;3455;42.150;24.734;2023-05-10T13:27:28;5.18;;;4.88;;
6834;SDS011;3455;42.150;24.734;2023-05-10T13:29:54;4.38;;;4.05;;
6834;SDS011;3455;42.150;24.734;2023-05-10T13:32:21;4.72;;;4.40;;
6834;SDS011;3455;42.150;24.734;2023-05-10T13:34:50;5.20;;;4.85;;
6834;SDS011;3455;42.150;24.734;2023-05-10T13:37:17;4.65;;;4.45;;
6834;SDS011;3455;42.150;24.734;2023-05-10T13:39:43;5.60;;;5.25;;
6834;SDS011;3455;42.150;24.734;2023-05-10T13:42:10;5.35;;;5.15;;
6834;SDS011;3455;42.150;24.734;2023-05-10T13:44:37;4.90;;;4.70;;
6834;SDS011;3455;42.150;24.734;2023-05-10T13:47:03;5.53;;;5.15;;
6834;SDS011;3455;42.150;24.734;2023-05-10T13:49:30;5.55;;;5.15;;
6834;SDS011;3455;42.150;24.734;2023-05-10T13:51:58;5.93;;;5.45;;
6834;SDS011;3455;42.150;24.734;2023-05-10T13:54:30;6.25;;;5.93;;
6834;SDS011;3455;42.150;24.734;2023-05-10T13:56:57;6.57;;;6.22;;
6834;SDS011;3455;42.150;24.734;2023-05-10T13:59:24;7.03;;;6.72;;
6834;SDS011;3455;42.150;24.734;2023-05-10T14:01:51;7.03;;;6.60;;
6834;SDS011;3455;42.150;24.734;2023-05-10T14:04:17;5.95;;;5.65;;
6834;SDS011;3455;42.150;24.734;2023-05-10T14:06:44;6.18;;;5.88;;
6834;SDS011;3455;42.150;24.734;2023-05-10T14:09:12;7.03;;;6.63;;
6834;SDS011;3455;42.150;24.734;2023-05-10T14:11:39;9.18;;;8.57;;
6834;SDS011;3455;42.150;24.734;2023-05-10T14:14:08;5.78;;;5.38;;
6834;SDS011;3455;42.150;24.734;2023-05-10T14:16:34;6.70;;;6.35;;
6834;SDS011;3455;42.150;24.734;2023-05-10T14:19:01;6.35;;;5.82;;
6834;SDS011;3455;42.150;24.734;2023-05-10T14:21:28;4.88;;;4.57;;
6834;SDS011;3455;42.150;24.734;2023-05-10T14:23:55;6.25;;;5.95;;
6834;SDS011;3455;42.150;24.734;2023-05-10T14:26:23;7.15;;;4.97;;
6834;SDS011;3455;42.150;24.734;2023-05-10T14:28:51;5.60;;;5.20;;
6834;SDS011;3455;42.150;24.734;2023-05-10T14:31:18;6.30;;;5.90;;
6834;SDS011;3455;42.150;24.734;2023-05-10T14:33:45;5.53;;;5.18;;
6834;SDS011;3455;42.150;24.734;2023-05-10T14:36:12;5.85;;;5.53;;
6834;SDS011;3455;42.150;24.734;2023-05-10T14:38:39;5.90;;;5.60;;
6834;SDS011;3455;42.150;24.734;2023-05-10T14:41:06;6.28;;;5.97;;
6834;SDS011;3455;42.150;24.734;2023-05-10T14:43:34;6.10;;;5.70;;
6834;SDS011;3455;42.150;24.734;2023-05-10T14:46:01;5.65;;;5.30;;
6834;SDS011;3455;42.150;24.734;2023-05-10T14:48:28;5.10;;;4.80;;
6834;SDS011;3455;42.150;24.734;2023-05-10T14:50:55;5.82;;;5.53;;
6834;SDS011;3455;42.150;24.734;2023-05-10T14:53:37;5.05;;;4.82;;
6834;SDS011;3455;42.150;24.734;2023-05-10T14:56:04;4.68;;;4.38;;
6834;SDS011;3455;42.150;24.734;2023-05-10T14:58:31;5.07;;;4.68;;
6834;SDS011;3455;42.150;24.734;2023-05-10T15:00:59;4.38;;;4.10;;
6834;SDS011;3455;42.150;24.734;2023-05-10T15:03:26;4.55;;;4.25;;
6834;SDS011;3455;42.150;24.734;2023-05-10T15:05:53;4.97;;;4.53;;
6834;SDS011;3455;42.150;24.734;2023-05-10T15:08:21;4.55;;;4.15;;
6834;SDS011;3455;42.150;24.734;2023-05-10T15:10:48;4.82;;;4.63;;